sensor_id;sensor_type;location;lat;lon;timestamp;pressure;altitude;pressure_sealevel;temperature;humidity
58471;BME280;44258;51.288;12.068;2024-02-26T00:00:18;99175.22;;;7.13;56.92
58471;BME280;44258;51.288;12.068;2024-02-26T00:02:44;99174.53;;;7.09;57.07
58471;BME280;44258;51.288;12.068;2024-02-26T00:05:11;99169.56;;;7.03;56.90
58471;BME280;44258;51.288;12.068;2024-02-26T00:07:38;99170.97;;;6.94;57.12
58471;BME280;44258;51.288;12.068;2024-02-26T00:10:06;99165.78;;;6.91;57.00
58471;BME280;44258;51.288;12.068;2024-02-26T00:12:33;99166.56;;;6.93;57.16
58471;BME280;44258;51.288;12.068;2024-02-26T00:15:00;99177.25;;;6.93;57.09
58471;BME280;44258;51.288;12.068;2024-02-26T00:17:28;99164.75;;;6.94;56.95
58471;BME280;44258;51.288;12.068;2024-02-26T00:19:56;99156.72;;;6.94;56.66
58471;BME280;44258;51.288;12.068;2024-02-26T00:22:23;99162.19;;;6.92;57.08
58471;BME280;44258;51.288;12.068;2024-02-26T00:24:49;99164.34;;;6.86;57.29
58471;BME280;44258;51.288;12.068;2024-02-26T00:27:16;99165.31;;;6.85;57.28
58471;BME280;44258;51.288;12.068;2024-02-26T00:29:43;99158.06;;;6.87;57.11
58471;BME280;44258;51.288;12.068;2024-02-26T00:32:10;99160.81;;;6.85;57.29
58471;BME280;44258;51.288;12.068;2024-02-26T00:34:38;99155.69;;;6.82;57.31
58471;BME280;44258;51.288;12.068;2024-02-26T00:37:06;99162.22;;;6.77;57.08
58471;BME280;44258;51.288;12.068;2024-02-26T00:39:34;99157.81;;;6.76;57.34
58471;BME280;44258;51.288;12.068;2024-02-26T00:42:01;99154.22;;;6.77;57.12
58471;BME280;44258;51.288;12.068;2024-02-26T00:44:28;99144.66;;;6.72;57.21
58471;BME280;44258;51.288;12.068;2024-02-26T00:46:55;99154.75;;;6.67;57.32
58471;BME280;44258;51.288;12.068;2024-02-26T00:49:22;99144.25;;;6.64;57.74
58471;BME280;44258;51.288;12.068;2024-02-26T00:51:51;99140.63;;;6.65;57.62
58471;BME280;44258;51.288;12.068;2024-02-26T00:54:18;99141.75;;;6.61;57.74
58471;BME280;44258;51.288;12.068;2024-02-26T00:56:45;99142.56;;;6.47;57.86
58471;BME280;44258;51.288;12.068;2024-02-26T00:59:11;99142.25;;;6.38;58.50
58471;BME280;44258;51.288;12.068;2024-02-26T01:01:38;99146.91;;;6.34;59.19
58471;BME280;44258;51.288;12.068;2024-02-26T01:04:05;99144.16;;;6.36;59.49
58471;BME280;44258;51.288;12.068;2024-02-26T01:06:31;99138.28;;;6.45;59.14
58471;BME280;44258;51.288;12.068;2024-02-26T01:08:59;99134.19;;;6.53;58.74
58471;BME280;44258;51.288;12.068;2024-02-26T01:11:26;99131.44;;;6.55;58.47
58471;BME280;44258;51.288;12.068;2024-02-26T01:13:53;99136.78;;;6.55;58.58
58471;BME280;44258;51.288;12.068;2024-02-26T01:16:22;99124.56;;;6.51;58.75
58471;BME280;44258;51.288;12.068;2024-02-26T01:18:51;99121.47;;;6.43;58.64
58471;BME280;44258;51.288;12.068;2024-02-26T01:21:19;99120.91;;;6.38;58.80
58471;BME280;44258;51.288;12.068;2024-02-26T01:23:46;99119.94;;;6.39;59.13
58471;BME280;44258;51.288;12.068;2024-02-26T01:26:13;99115.38;;;6.41;59.09
58471;BME280;44258;51.288;12.068;2024-02-26T01:28:40;99109.09;;;6.42;58.90
58471;BME280;44258;51.288;12.068;2024-02-26T01:31:09;99104.59;;;6.42;58.74
58471;BME280;44258;51.288;12.068;2024-02-26T01:33:36;99100.13;;;6.43;58.36
58471;BME280;44258;51.288;12.068;2024-02-26T01:36:03;99109.09;;;6.42;58.27
58471;BME280;44258;51.288;12.068;2024-02-26T01:38:30;99100.19;;;6.41;58.45
58471;BME280;44258;51.288;12.068;2024-02-26T01:40:56;99101.16;;;6.40;58.33
58471;BME280;44258;51.288;12.068;2024-02-26T01:43:24;99098.00;;;6.33;58.41
58471;BME280;44258;51.288;12.068;2024-02-26T01:45:51;99096.72;;;6.25;58.49
58471;BME280;44258;51.288;12.068;2024-02-26T01:48:18;99091.84;;;6.17;58.99
58471;BME280;44258;51.288;12.068;2024-02-26T01:50:45;99089.19;;;6.01;59.09
58471;BME280;44258;51.288;12.068;2024-02-26T01:53:12;99094.00;;;5.94;59.85
58471;BME280;44258;51.288;12.068;2024-02-26T01:55:40;99092.09;;;5.97;59.92
58471;BME280;44258;51.288;12.068;2024-02-26T01:58:07;99092.72;;;6.02;59.66
58471;BME280;44258;51.288;12.068;2024-02-26T02:00:37;99098.53;;;6.08;60.02
58471;BME280;44258;51.288;12.068;2024-02-26T02:03:07;99089.16;;;6.17;59.76
58471;BME280;44258;51.288;12.068;2024-02-26T02:05:35;99084.69;;;6.18;60.17
58471;BME280;44258;51.288;12.068;2024-02-26T02:08:07;99083.47;;;6.23;59.72
58471;BME280;44258;51.288;12.068;2024-02-26T02:10:34;99089.38;;;6.28;59.39
58471;BME280;44258;51.288;12.068;2024-02-26T02:13:02;99084.91;;;6.29;59.60
58471;BME280;44258;51.288;12.068;2024-02-26T02:15:28;99087.50;;;6.30;59.58
58471;BME280;44258;51.288;12.068;2024-02-26T02:17:57;99091.91;;;6.31;59.04
58471;BME280;44258;51.288;12.068;2024-02-26T02:20:26;99101.81;;;6.29;59.23
58471;BME280;44258;51.288;12.068;2024-02-26T02:22:58;99106.25;;;6.29;58.98
58471;BME280;44258;51.288;12.068;2024-02-26T02:25:24;99109.69;;;6.31;59.13
58471;BME280;44258;51.288;12.068;2024-02-26T02:27:52;99109.88;;;6.28;59.44
58471;BME280;44258;51.288;12.068;2024-02-26T02:30:21;99108.50;;;6.21;59.00
58471;BME280;44258;51.288;12.068;2024-02-26T02:32:48;99117.56;;;6.18;59.05
58471;BME280;44258;51.288;12.068;2024-02-26T02:35:15;99110.53;;;6.17;59.39
58471;BME280;44258;51.288;12.068;2024-02-26T02:37:43;99116.78;;;6.16;59.17
58471;BME280;44258;51.288;12.068;2024-02-26T02:40:10;99114.19;;;6.14;58.62
58471;BME280;44258;51.288;12.068;2024-02-26T02:42:36;99114.41;;;6.11;58.40
58471;BME280;44258;51.288;12.068;2024-02-26T02:45:04;99115.59;;;6.06;58.79
58471;BME280;44258;51.288;12.068;2024-02-26T02:47:31;99122.13;;;6.00;58.95
58471;BME280;44258;51.288;12.068;2024-02-26T02:49:57;99120.59;;;5.96;59.10
58471;BME280;44258;51.288;12.068;2024-02-26T02:52:24;99120.78;;;5.93;58.98
58471;BME280;44258;51.288;12.068;2024-02-26T02:54:52;99123.44;;;5.93;58.62
58471;BME280;44258;51.288;12.068;2024-02-26T02:57:19;99128.78;;;5.93;59.01
58471;BME280;44258;51.288;12.068;2024-02-26T02:59:46;99125.16;;;5.94;59.15
58471;BME280;44258;51.288;12.068;2024-02-26T03:02:13;99128.78;;;5.93;58.92
58471;BME280;44258;51.288;12.068;2024-02-26T03:04:40;99145.78;;;5.90;59.04
58471;BME280;44258;51.288;12.068;2024-02-26T03:07:06;99142.25;;;5.90;59.38
58471;BME280;44258;51.288;12.068;2024-02-26T03:09:33;99144.22;;;5.86;59.31
58471;BME280;44258;51.288;12.068;2024-02-26T03:12:01;99139.94;;;5.84;59.98
58471;BME280;44258;51.288;12.068;2024-02-26T03:14:28;99140.19;;;5.79;59.94
58471;BME280;44258;51.288;12.068;2024-02-26T03:16:55;99135.00;;;5.76;59.51
58471;BME280;44258;51.288;12.068;2024-02-26T03:19:23;99125.81;;;5.66;60.14
58471;BME280;44258;51.288;12.068;2024-02-26T03:21:52;99127.69;;;5.64;60.05
58471;BME280;44258;51.288;12.068;2024-02-26T03:24:19;99129.44;;;5.65;59.90
58471;BME280;44258;51.288;12.068;2024-02-26T03:26:47;99130.03;;;5.70;59.86
58471;BME280;44258;51.288;12.068;2024-02-26T03:29:18;99121.94;;;5.71;59.73
58471;BME280;44258;51.288;12.068;2024-02-26T03:31:45;99122.56;;;5.77;59.55
58471;BME280;44258;51.288;12.068;2024-02-26T03:34:12;99126.22;;;5.74;59.39
58471;BME280;44258;51.288;12.068;2024-02-26T03:36:40;99131.34;;;5.79;59.44
58471;BME280;44258;51.288;12.068;2024-02-26T03:39:06;99127.97;;;5.75;59.52
58471;BME280;44258;51.288;12.068;2024-02-26T03:41:33;99121.69;;;5.76;59.40
58471;BME280;44258;51.288;12.068;2024-02-26T03:44:00;99119.13;;;5.74;59.31
58471;BME280;44258;51.288;12.068;2024-02-26T03:46:28;99123.56;;;5.74;59.22
58471;BME280;44258;51.288;12.068;2024-02-26T03:48:55;99126.41;;;5.71;59.34
58471;BME280;44258;51.288;12.068;2024-02-26T03:51:22;99126.25;;;5.58;59.94
58471;BME280;44258;51.288;12.068;2024-02-26T03:53:48;99129.66;;;5.44;60.39
58471;BME280;44258;51.288;12.068;2024-02-26T03:56:15;99130.31;;;5.32;60.39
58471;BME280;44258;51.288;12.068;2024-02-26T03:58:42;99128.50;;;5.32;60.36
58471;BME280;44258;51.288;12.068;2024-02-26T04:01:11;99128.34;;;5.36;60.24
58471;BME280;44258;51.288;12.068;2024-02-26T04:03:40;99148.66;;;5.38;60.41
58471;BME280;44258;51.288;12.068;2024-02-26T04:06:08;99143.91;;;5.43;60.23
58471;BME280;44258;51.288;12.068;2024-02-26T04:08:36;99138.38;;;5.48;60.17
58471;BME280;44258;51.288;12.068;2024-02-26T04:11:03;99140.59;;;5.56;60.08
58471;BME280;44258;51.288;12.068;2024-02-26T04:13:32;99135.50;;;5.51;59.86
58471;BME280;44258;51.288;12.068;2024-02-26T04:15:59;99141.38;;;5.42;59.83
58471;BME280;44258;51.288;12.068;2024-02-26T04:18:26;99139.69;;;5.39;60.28
58471;BME280;44258;51.288;12.068;2024-02-26T04:20:56;99137.91;;;5.40;60.13
58471;BME280;44258;51.288;12.068;2024-02-26T04:23:23;99140.66;;;5.38;60.44
58471;BME280;44258;51.288;12.068;2024-02-26T04:25:50;99147.88;;;5.36;60.19
58471;BME280;44258;51.288;12.068;2024-02-26T04:28:19;99145.22;;;5.36;60.28
58471;BME280;44258;51.288;12.068;2024-02-26T04:30:47;99141.84;;;5.32;60.43
58471;BME280;44258;51.288;12.068;2024-02-26T04:33:14;99134.47;;;5.38;60.95
58471;BME280;44258;51.288;12.068;2024-02-26T04:35:42;99140.59;;;5.40;60.61
58471;BME280;44258;51.288;12.068;2024-02-26T04:38:10;99147.63;;;5.41;60.38
58471;BME280;44258;51.288;12.068;2024-02-26T04:40:37;99149.19;;;5.45;60.17
58471;BME280;44258;51.288;12.068;2024-02-26T04:43:04;99143.91;;;5.43;60.23
58471;BME280;44258;51.288;12.068;2024-02-26T04:45:33;99142.38;;;5.39;59.72
58471;BME280;44258;51.288;12.068;2024-02-26T04:48:00;99144.44;;;5.34;60.04
58471;BME280;44258;51.288;12.068;2024-02-26T04:50:27;99141.41;;;5.24;60.10
58471;BME280;44258;51.288;12.068;2024-02-26T04:52:54;99151.34;;;5.21;60.03
58471;BME280;44258;51.288;12.068;2024-02-26T04:55:22;99150.41;;;5.22;60.50
58471;BME280;44258;51.288;12.068;2024-02-26T04:57:49;99149.38;;;5.24;59.88
58471;BME280;44258;51.288;12.068;2024-02-26T05:00:17;99157.31;;;5.26;59.93
58471;BME280;44258;51.288;12.068;2024-02-26T05:02:43;99160.06;;;5.24;60.13
58471;BME280;44258;51.288;12.068;2024-02-26T05:05:10;99168.66;;;5.29;59.95
58471;BME280;44258;51.288;12.068;2024-02-26T05:07:39;99166.69;;;5.33;59.97
58471;BME280;44258;51.288;12.068;2024-02-26T05:10:07;99161.34;;;5.33;59.95
58471;BME280;44258;51.288;12.068;2024-02-26T05:12:35;99163.94;;;5.34;59.85
58471;BME280;44258;51.288;12.068;2024-02-26T05:15:02;99167.47;;;5.35;59.85
58471;BME280;44258;51.288;12.068;2024-02-26T05:17:33;99161.22;;;5.36;59.61
58471;BME280;44258;51.288;12.068;2024-02-26T05:20:00;99160.16;;;5.39;59.97
58471;BME280;44258;51.288;12.068;2024-02-26T05:22:27;99165.44;;;5.40;59.97
58471;BME280;44258;51.288;12.068;2024-02-26T05:24:57;99159.53;;;5.33;59.70
58471;BME280;44258;51.288;12.068;2024-02-26T05:27:24;99152.50;;;5.32;60.13
58471;BME280;44258;51.288;12.068;2024-02-26T05:29:53;99163.31;;;5.29;60.00
58471;BME280;44258;51.288;12.068;2024-02-26T05:32:20;99156.69;;;5.21;60.20
58471;BME280;44258;51.288;12.068;2024-02-26T05:34:47;99159.34;;;5.21;59.71
58471;BME280;44258;51.288;12.068;2024-02-26T05:37:14;99153.09;;;5.22;59.93
58471;BME280;44258;51.288;12.068;2024-02-26T05:39:41;99148.75;;;5.19;59.97
58471;BME280;44258;51.288;12.068;2024-02-26T05:42:08;99152.44;;;5.17;60.65
58471;BME280;44258;51.288;12.068;2024-02-26T05:44:35;99150.63;;;5.17;60.54
58471;BME280;44258;51.288;12.068;2024-02-26T05:47:04;99145.25;;;5.19;60.85
58471;BME280;44258;51.288;12.068;2024-02-26T05:49:31;99149.22;;;5.27;60.90
58471;BME280;44258;51.288;12.068;2024-02-26T05:51:58;99153.34;;;5.33;60.63
58471;BME280;44258;51.288;12.068;2024-02-26T05:54:25;99146.69;;;5.42;60.42
58471;BME280;44258;51.288;12.068;2024-02-26T05:56:53;99148.31;;;5.44;60.29
58471;BME280;44258;51.288;12.068;2024-02-26T05:59:20;99148.00;;;5.50;60.89
58471;BME280;44258;51.288;12.068;2024-02-26T06:01:48;99155.13;;;5.50;60.51
58471;BME280;44258;51.288;12.068;2024-02-26T06:04:17;99156.59;;;5.56;60.86
58471;BME280;44258;51.288;12.068;2024-02-26T06:06:44;99153.13;;;5.53;60.74
58471;BME280;44258;51.288;12.068;2024-02-26T06:09:10;99153.06;;;5.55;61.01
58471;BME280;44258;51.288;12.068;2024-02-26T06:11:38;99159.03;;;5.60;60.89
58471;BME280;44258;51.288;12.068;2024-02-26T06:14:05;99164.19;;;5.63;60.64
58471;BME280;44258;51.288;12.068;2024-02-26T06:16:32;99176.66;;;5.63;61.00
58471;BME280;44258;51.288;12.068;2024-02-26T06:18:59;99173.53;;;5.54;61.16
58471;BME280;44258;51.288;12.068;2024-02-26T06:21:28;99178.25;;;5.49;61.26
58471;BME280;44258;51.288;12.068;2024-02-26T06:23:55;99176.69;;;5.45;61.83
58471;BME280;44258;51.288;12.068;2024-02-26T06:26:22;99171.78;;;5.38;62.12
58471;BME280;44258;51.288;12.068;2024-02-26T06:28:51;99175.63;;;5.32;62.38
58471;BME280;44258;51.288;12.068;2024-02-26T06:31:21;99178.19;;;5.33;62.07
58471;BME280;44258;51.288;12.068;2024-02-26T06:33:48;99189.16;;;5.45;61.95
58471;BME280;44258;51.288;12.068;2024-02-26T06:36:15;99192.00;;;5.42;61.83
58471;BME280;44258;51.288;12.068;2024-02-26T06:38:43;99191.53;;;5.33;62.92
58471;BME280;44258;51.288;12.068;2024-02-26T06:41:10;99197.56;;;5.37;62.40
58471;BME280;44258;51.288;12.068;2024-02-26T06:43:37;99194.56;;;5.43;62.78
58471;BME280;44258;51.288;12.068;2024-02-26T06:46:03;99193.84;;;5.57;62.29
58471;BME280;44258;51.288;12.068;2024-02-26T06:48:32;99202.22;;;5.67;62.49
58471;BME280;44258;51.288;12.068;2024-02-26T06:50:58;99206.09;;;5.77;62.31
58471;BME280;44258;51.288;12.068;2024-02-26T06:53:25;99208.06;;;5.91;61.89
58471;BME280;44258;51.288;12.068;2024-02-26T06:55:53;99211.31;;;5.96;61.98
58471;BME280;44258;51.288;12.068;2024-02-26T06:58:20;99210.03;;;6.03;61.81
58471;BME280;44258;51.288;12.068;2024-02-26T07:00:47;99216.06;;;6.07;61.75
58471;BME280;44258;51.288;12.068;2024-02-26T07:03:14;99208.59;;;6.13;61.99
58471;BME280;44258;51.288;12.068;2024-02-26T07:05:41;99208.22;;;6.04;62.62
58471;BME280;44258;51.288;12.068;2024-02-26T07:08:10;99208.72;;;5.94;63.83
58471;BME280;44258;51.288;12.068;2024-02-26T07:10:36;99214.59;;;6.01;64.20
58471;BME280;44258;51.288;12.068;2024-02-26T07:13:05;99216.16;;;6.21;63.85
58471;BME280;44258;51.288;12.068;2024-02-26T07:15:31;99209.66;;;6.41;63.25
58471;BME280;44258;51.288;12.068;2024-02-26T07:17:58;99218.03;;;6.51;62.92
58471;BME280;44258;51.288;12.068;2024-02-26T07:20:28;99215.69;;;6.61;63.34
58471;BME280;44258;51.288;12.068;2024-02-26T07:22:56;99213.94;;;6.76;62.89
58471;BME280;44258;51.288;12.068;2024-02-26T07:25:23;99210.13;;;6.80;62.71
58471;BME280;44258;51.288;12.068;2024-02-26T07:27:50;99215.41;;;6.65;63.83
58471;BME280;44258;51.288;12.068;2024-02-26T07:30:18;99223.50;;;6.80;64.17
58471;BME280;44258;51.288;12.068;2024-02-26T07:32:45;99219.44;;;6.88;63.76
58471;BME280;44258;51.288;12.068;2024-02-26T07:35:11;99218.47;;;6.89;63.79
58471;BME280;44258;51.288;12.068;2024-02-26T07:37:38;99220.28;;;6.89;64.28
58471;BME280;44258;51.288;12.068;2024-02-26T07:40:06;99215.72;;;6.91;64.44
58471;BME280;44258;51.288;12.068;2024-02-26T07:42:33;99225.22;;;7.11;64.39
58471;BME280;44258;51.288;12.068;2024-02-26T07:45:01;99216.28;;;6.96;64.51
58471;BME280;44258;51.288;12.068;2024-02-26T07:47:30;99228.31;;;6.89;64.42
58471;BME280;44258;51.288;12.068;2024-02-26T07:49:56;99220.53;;;7.14;64.70
58471;BME280;44258;51.288;12.068;2024-02-26T07:52:22;99223.13;;;7.16;64.27
58471;BME280;44258;51.288;12.068;2024-02-26T07:54:53;99223.75;;;7.36;64.14
58471;BME280;44258;51.288;12.068;2024-02-26T07:57:20;99223.44;;;7.26;63.34
58471;BME280;44258;51.288;12.068;2024-02-26T07:59:47;99232.16;;;7.44;64.03
58471;BME280;44258;51.288;12.068;2024-02-26T08:02:15;99225.47;;;7.65;63.60
58471;BME280;44258;51.288;12.068;2024-02-26T08:04:43;99214.81;;;7.94;63.27
58471;BME280;44258;51.288;12.068;2024-02-26T08:07:10;99221.38;;;8.17;62.14
58471;BME280;44258;51.288;12.068;2024-02-26T08:09:37;99221.84;;;8.24;61.36
58471;BME280;44258;51.288;12.068;2024-02-26T08:12:04;99223.38;;;8.28;61.86
58471;BME280;44258;51.288;12.068;2024-02-26T08:14:31;99231.94;;;8.47;61.94
58471;BME280;44258;51.288;12.068;2024-02-26T08:16:58;99229.81;;;8.52;61.14
58471;BME280;44258;51.288;12.068;2024-02-26T08:19:28;99229.50;;;8.16;62.18
58471;BME280;44258;51.288;12.068;2024-02-26T08:21:56;99241.00;;;8.45;62.31
58471;BME280;44258;51.288;12.068;2024-02-26T08:24:23;99234.72;;;8.73;61.68
58471;BME280;44258;51.288;12.068;2024-02-26T08:26:51;99242.69;;;8.87;61.21
58471;BME280;44258;51.288;12.068;2024-02-26T08:29:18;99247.47;;;8.97;61.29
58471;BME280;44258;51.288;12.068;2024-02-26T08:31:45;99248.25;;;8.71;61.77
58471;BME280;44258;51.288;12.068;2024-02-26T08:34:12;99251.16;;;8.81;62.03
58471;BME280;44258;51.288;12.068;2024-02-26T08:36:38;99253.47;;;9.00;61.74
58471;BME280;44258;51.288;12.068;2024-02-26T08:39:06;99244.13;;;9.06;61.50
58471;BME280;44258;51.288;12.068;2024-02-26T08:41:35;99251.44;;;9.04;62.11
58471;BME280;44258;51.288;12.068;2024-02-26T08:44:02;99256.63;;;9.20;62.26
58471;BME280;44258;51.288;12.068;2024-02-26T08:46:29;99247.47;;;9.09;62.23
58471;BME280;44258;51.288;12.068;2024-02-26T08:48:56;99246.94;;;9.04;62.85
58471;BME280;44258;51.288;12.068;2024-02-26T08:51:22;99251.25;;;9.20;62.81
58471;BME280;44258;51.288;12.068;2024-02-26T08:53:49;99249.81;;;9.01;62.80
58471;BME280;44258;51.288;12.068;2024-02-26T08:56:17;99249.16;;;8.98;62.36
58471;BME280;44258;51.288;12.068;2024-02-26T08:58:45;99256.31;;;9.24;61.89
58471;BME280;44258;51.288;12.068;2024-02-26T09:01:14;99251.88;;;9.50;60.56
58471;BME280;44258;51.288;12.068;2024-02-26T09:03:44;99254.03;;;9.45;60.28
58471;BME280;44258;51.288;12.068;2024-02-26T09:06:11;99252.53;;;9.67;60.63
58471;BME280;44258;51.288;12.068;2024-02-26T09:08:41;99246.44;;;9.78;59.73
58471;BME280;44258;51.288;12.068;2024-02-26T09:11:07;99243.94;;;9.74;59.91
58471;BME280;44258;51.288;12.068;2024-02-26T09:13:37;99239.44;;;9.75;59.55
58471;BME280;44258;51.288;12.068;2024-02-26T09:16:05;99244.19;;;9.19;62.13
58471;BME280;44258;51.288;12.068;2024-02-26T09:18:32;99242.75;;;8.73;63.34
58471;BME280;44258;51.288;12.068;2024-02-26T09:20:59;99241.78;;;9.01;62.53
58471;BME280;44258;51.288;12.068;2024-02-26T09:23:26;99234.56;;;9.29;61.28
58471;BME280;44258;51.288;12.068;2024-02-26T09:25:53;99241.13;;;9.50;61.34
58471;BME280;44258;51.288;12.068;2024-02-26T09:28:20;99237.72;;;9.74;60.75
58471;BME280;44258;51.288;12.068;2024-02-26T09:30:48;99238.66;;;9.99;60.25
58471;BME280;44258;51.288;12.068;2024-02-26T09:33:16;99242.50;;;10.07;59.39
58471;BME280;44258;51.288;12.068;2024-02-26T09:35:43;99243.84;;;10.02;59.98
58471;BME280;44258;51.288;12.068;2024-02-26T09:38:10;99247.25;;;9.91;61.19
58471;BME280;44258;51.288;12.068;2024-02-26T09:40:37;99250.75;;;10.30;60.22
58471;BME280;44258;51.288;12.068;2024-02-26T09:43:10;99252.47;;;10.31;59.58
58471;BME280;44258;51.288;12.068;2024-02-26T09:45:43;99246.91;;;10.21;59.65
58471;BME280;44258;51.288;12.068;2024-02-26T09:48:12;99250.94;;;10.40;59.19
58471;BME280;44258;51.288;12.068;2024-02-26T09:50:43;99249.75;;;10.44;59.57
58471;BME280;44258;51.288;12.068;2024-02-26T09:53:11;99253.31;;;10.68;59.30
58471;BME280;44258;51.288;12.068;2024-02-26T09:55:40;99246.00;;;10.33;59.71
58471;BME280;44258;51.288;12.068;2024-02-26T09:58:07;99253.13;;;10.34;60.39
58471;BME280;44258;51.288;12.068;2024-02-26T10:00:37;99248.44;;;10.49;59.50
58471;BME280;44258;51.288;12.068;2024-02-26T10:03:05;99246.78;;;10.23;59.99
58471;BME280;44258;51.288;12.068;2024-02-26T10:05:33;99246.41;;;10.40;60.11
58471;BME280;44258;51.288;12.068;2024-02-26T10:08:01;99258.94;;;10.65;59.54
58471;BME280;44258;51.288;12.068;2024-02-26T10:10:29;99250.63;;;10.81;59.46
58471;BME280;44258;51.288;12.068;2024-02-26T10:13:00;99251.47;;;10.45;59.39
58471;BME280;44258;51.288;12.068;2024-02-26T10:15:26;99258.25;;;10.38;60.46
58471;BME280;44258;51.288;12.068;2024-02-26T10:17:54;99264.22;;;10.54;60.48
58471;BME280;44258;51.288;12.068;2024-02-26T10:20:23;99262.63;;;10.51;60.32
58471;BME280;44258;51.288;12.068;2024-02-26T10:22:53;99261.88;;;10.86;59.05
58471;BME280;44258;51.288;12.068;2024-02-26T10:25:21;99259.88;;;11.01;57.98
58471;BME280;44258;51.288;12.068;2024-02-26T10:27:48;99255.69;;;10.73;58.58
58471;BME280;44258;51.288;12.068;2024-02-26T10:30:20;99256.84;;;10.82;59.13
58471;BME280;44258;51.288;12.068;2024-02-26T10:32:49;99263.94;;;10.46;59.99
58471;BME280;44258;51.288;12.068;2024-02-26T10:35:16;99255.34;;;10.78;59.68
58471;BME280;44258;51.288;12.068;2024-02-26T10:37:43;99262.34;;;10.80;59.29
58471;BME280;44258;51.288;12.068;2024-02-26T10:40:12;99257.69;;;10.82;59.69
58471;BME280;44258;51.288;12.068;2024-02-26T10:42:39;99261.94;;;10.98;59.23
58471;BME280;44258;51.288;12.068;2024-02-26T10:45:07;99254.72;;;11.22;58.53
58471;BME280;44258;51.288;12.068;2024-02-26T10:47:34;99248.66;;;11.43;58.19
58471;BME280;44258;51.288;12.068;2024-02-26T10:50:02;99257.22;;;11.48;58.01
58471;BME280;44258;51.288;12.068;2024-02-26T10:52:32;99257.00;;;11.51;57.42
58471;BME280;44258;51.288;12.068;2024-02-26T10:55:03;99260.19;;;11.56;57.82
58471;BME280;44258;51.288;12.068;2024-02-26T10:57:36;99264.72;;;11.55;57.74
58471;BME280;44258;51.288;12.068;2024-02-26T11:00:06;99260.81;;;11.60;57.60
58471;BME280;44258;51.288;12.068;2024-02-26T11:02:36;99258.69;;;11.41;58.33
58471;BME280;44258;51.288;12.068;2024-02-26T11:05:03;99261.31;;;11.65;57.98
58471;BME280;44258;51.288;12.068;2024-02-26T11:07:31;99244.06;;;11.79;57.31
58471;BME280;44258;51.288;12.068;2024-02-26T11:10:00;99252.28;;;11.77;57.54
58471;BME280;44258;51.288;12.068;2024-02-26T11:12:29;99250.34;;;11.44;58.50
58471;BME280;44258;51.288;12.068;2024-02-26T11:14:58;99248.53;;;11.09;58.96
58471;BME280;44258;51.288;12.068;2024-02-26T11:17:27;99237.59;;;10.75;59.75
58471;BME280;44258;51.288;12.068;2024-02-26T11:20:00;99237.59;;;10.51;59.70
58471;BME280;44258;51.288;12.068;2024-02-26T11:22:28;99233.88;;;10.65;59.64
58471;BME280;44258;51.288;12.068;2024-02-26T11:24:55;99231.84;;;10.92;59.15
58471;BME280;44258;51.288;12.068;2024-02-26T11:27:25;99233.31;;;10.97;59.89
58471;BME280;44258;51.288;12.068;2024-02-26T11:29:57;99235.47;;;11.51;58.10
58471;BME280;44258;51.288;12.068;2024-02-26T11:32:26;99235.34;;;11.17;58.56
58471;BME280;44258;51.288;12.068;2024-02-26T11:34:55;99227.22;;;11.41;58.09
58471;BME280;44258;51.288;12.068;2024-02-26T11:37:22;99235.69;;;11.48;57.73
58471;BME280;44258;51.288;12.068;2024-02-26T11:39:51;99232.56;;;11.19;58.80
58471;BME280;44258;51.288;12.068;2024-02-26T11:42:23;99240.19;;;11.01;59.45
58471;BME280;44258;51.288;12.068;2024-02-26T11:44:50;99228.06;;;10.95;59.74
58471;BME280;44258;51.288;12.068;2024-02-26T11:47:20;99232.66;;;11.52;59.02
58471;BME280;44258;51.288;12.068;2024-02-26T11:49:47;99232.44;;;11.89;58.47
58471;BME280;44258;51.288;12.068;2024-02-26T11:52:15;99234.13;;;11.68;58.05
58471;BME280;44258;51.288;12.068;2024-02-26T11:54:47;99230.44;;;11.58;58.42
58471;BME280;44258;51.288;12.068;2024-02-26T11:57:21;99230.44;;;11.58;58.01
58471;BME280;44258;51.288;12.068;2024-02-26T11:59:51;99226.31;;;11.65;58.56
58471;BME280;44258;51.288;12.068;2024-02-26T12:02:43;99230.00;;;11.75;58.04
58471;BME280;44258;51.288;12.068;2024-02-26T12:05:12;99242.25;;;12.02;57.74
58471;BME280;44258;51.288;12.068;2024-02-26T12:07:39;99241.50;;;11.77;58.77
58471;BME280;44258;51.288;12.068;2024-02-26T12:10:21;99245.09;;;12.23;57.92
58471;BME280;44258;51.288;12.068;2024-02-26T12:12:53;99246.13;;;12.54;56.93
58471;BME280;44258;51.288;12.068;2024-02-26T12:15:23;99243.41;;;12.77;56.55
58471;BME280;44258;51.288;12.068;2024-02-26T12:17:53;99250.06;;;12.72;56.43
58471;BME280;44258;51.288;12.068;2024-02-26T12:20:20;99255.47;;;12.50;56.76
58471;BME280;44258;51.288;12.068;2024-02-26T12:22:47;99246.66;;;12.25;56.44
58471;BME280;44258;51.288;12.068;2024-02-26T12:25:20;99261.34;;;12.55;56.43
58471;BME280;44258;51.288;12.068;2024-02-26T12:27:47;99257.31;;;12.61;55.81
58471;BME280;44258;51.288;12.068;2024-02-26T12:30:15;99262.97;;;12.46;56.23
58471;BME280;44258;51.288;12.068;2024-02-26T12:32:42;99263.19;;;12.43;56.25
58471;BME280;44258;51.288;12.068;2024-02-26T12:35:11;99281.91;;;12.67;56.10
58471;BME280;44258;51.288;12.068;2024-02-26T12:37:38;99286.13;;;13.04;55.29
58471;BME280;44258;51.288;12.068;2024-02-26T12:40:06;99296.34;;;13.21;54.03
58471;BME280;44258;51.288;12.068;2024-02-26T12:42:35;99302.25;;;12.83;54.76
58471;BME280;44258;51.288;12.068;2024-02-26T12:45:06;99290.66;;;12.48;55.48
58471;BME280;44258;51.288;12.068;2024-02-26T12:47:38;99297.03;;;12.25;55.93
58471;BME280;44258;51.288;12.068;2024-02-26T12:50:06;99291.97;;;12.54;55.62
58471;BME280;44258;51.288;12.068;2024-02-26T12:52:37;99292.09;;;11.96;57.26
58471;BME280;44258;51.288;12.068;2024-02-26T12:55:06;99296.66;;;12.29;56.42
58471;BME280;44258;51.288;12.068;2024-02-26T12:57:36;99291.41;;;12.17;56.56
58471;BME280;44258;51.288;12.068;2024-02-26T13:00:05;99303.41;;;12.12;55.86